Time;durP1;ratioP1;P1;durP2;ratioP2;P2;SDS_P1;SDS_P2;PMS_P1;PMS_P2;Temp;Humidity;BMP_temperature;BMP_pressure;BME280_temperature;BME280_humidity;BME280_pressure;Samples;Min_cycle;Max_cycle;Signal;HPM_P1;HPM_P2
2022/10/13 00:00:50;;;;;;;17.90;11.93;;;;;;;12.28;62.05;95381.84;4162169;28;20076;-53
2022/10/13 00:02:52;;;;;;;17.23;11.95;;;;;;;12.20;62.65;95379.13;4163729;28;20045;-58
2022/10/13 00:04:54;;;;;;;15.57;11.25;;;;;;;12.13;63.07;95378.09;4154869;28;20045;-58
2022/10/13 00:06:56;;;;;;;18.38;12.43;;;;;;;12.01;63.20;95382.75;4160613;28;20052;-58
2022/10/13 00:08:58;;;;;;;17.50;12.20;;;;;;;11.98;63.44;95377.81;4163370;28;20107;-55
2022/10/13 00:11:00;;;;;;;19.92;12.82;;;;;;;11.97;62.83;95376.16;4163235;28;20489;-57
2022/10/13 00:13:01;;;;;;;21.25;12.48;;;;;;;11.95;62.88;95382.53;4163626;28;20095;-57
2022/10/13 00:15:05;;;;;;;17.50;11.30;;;;;;;11.90;63.28;95379.53;4161453;28;20049;-59
2022/10/13 00:17:07;;;;;;;17.40;12.55;;;;;;;11.91;63.32;95378.56;4162712;28;20049;-56
2022/10/13 00:19:09;;;;;;;15.68;12.00;;;;;;;11.89;63.50;95373.44;4163101;28;20045;-59
2022/10/13 00:21:19;;;;;;;20.58;11.68;;;;;;;11.88;63.39;95377.88;4163134;28;20092;-58
2022/10/13 00:23:20;;;;;;;15.55;12.02;;;;;;;11.87;63.32;95370.97;4162488;28;20046;-57
2022/10/13 00:25:22;;;;;;;18.40;12.32;;;;;;;11.91;63.58;95365.44;4162773;28;20085;-58
2022/10/13 00:27:24;;;;;;;17.52;11.68;;;;;;;11.86;63.68;95364.03;4163612;28;20064;-58
2022/10/13 00:29:25;;;;;;;15.52;11.85;;;;;;;11.75;63.84;95366.09;4163248;28;20079;-58
2022/10/13 00:31:29;;;;;;;20.40;12.10;;;;;;;11.71;64.25;95370.78;4161392;28;20425;-57
2022/10/13 00:33:31;;;;;;;15.95;10.77;;;;;;;11.68;63.84;95360.59;4161628;28;20093;-54
2022/10/13 00:35:33;;;;;;;15.73;11.18;;;;;;;11.73;64.10;95357.53;4159141;28;20136;-57
2022/10/13 00:37:34;;;;;;;19.75;12.52;;;;;;;11.74;63.84;95359.97;4146939;28;20081;-58
2022/10/13 00:39:36;;;;;;;19.45;11.52;;;;;;;11.78;63.86;95358.72;4162944;28;20056;-58
2022/10/13 00:41:38;;;;;;;15.43;11.38;;;;;;;11.80;63.93;95353.31;4162716;28;20088;-55
2022/10/13 00:43:51;;;;;;;19.55;11.50;;;;;;;11.78;64.12;95356.09;4162920;28;20089;-59
2022/10/13 00:45:53;;;;;;;14.80;10.85;;;;;;;11.80;63.51;95348.88;4161446;28;20049;-57
2022/10/13 00:47:59;;;;;;;13.88;10.88;;;;;;;11.83;63.60;95343.34;4161758;28;20144;-56
2022/10/13 00:50:03;;;;;;;15.05;10.90;;;;;;;11.85;63.25;95344.03;4162915;28;20667;-57
2022/10/13 00:52:05;;;;;;;13.85;10.60;;;;;;;11.85;63.67;95351.91;4162652;28;20153;-56
2022/10/13 00:54:09;;;;;;;14.65;11.13;;;;;;;11.84;63.14;95352.88;4159836;28;20074;-56
2022/10/13 00:56:10;;;;;;;;;;;;;;;11.83;63.42;95348.59;4152744;28;20095;-56
2022/10/13 00:58:18;;;;;;;15.18;10.57;;;;;;;11.81;63.06;95350.56;4161579;28;19929;-58
2022/10/13 01:00:23;;;;;;;16.58;10.40;;;;;;;11.77;63.17;95341.31;4161149;28;20487;-57
2022/10/13 01:02:29;;;;;;;16.67;9.20;;;;;;;11.74;63.02;95348.66;4162723;28;20561;-61
2022/10/13 01:04:33;;;;;;;16.42;10.40;;;;;;;11.71;63.21;95346.34;4161687;28;20510;-62
2022/10/13 01:06:35;;;;;;;14.75;10.43;;;;;;;11.74;63.23;95349.47;4159103;28;20128;-63
2022/10/13 01:08:37;;;;;;;16.67;10.10;;;;;;;11.79;63.50;95349.88;4160945;28;20261;-62
2022/10/13 01:10:59;;;;;;;15.65;10.68;;;;;;;11.80;63.16;95346.25;4162099;28;20091;-61
2022/10/13 01:13:33;;;;;;;16.08;10.90;;;;;;;11.83;63.17;95348.59;4166360;28;20080;-62
2022/10/13 01:15:37;;;;;;;14.73;10.27;;;;;;;11.87;63.21;95347.31;4157257;28;20597;-63
2022/10/13 01:17:57;;;;;;;14.40;10.25;;;;;;;11.83;63.20;95343.34;4160505;28;20084;-63
2022/10/13 01:20:17;;;;;;;12.07;10.02;;;;;;;11.81;63.17;95345.31;4161410;28;20080;-61
2022/10/13 01:22:43;;;;;;;16.55;11.18;;;;;;;11.82;63.55;95348.75;4156928;28;20095;-62
2022/10/13 01:25:09;;;;;;;14.85;11.07;;;;;;;11.77;63.50;95354.44;4161822;28;20434;-64
2022/10/13 01:27:17;;;;;;;16.27;11.45;;;;;;;11.78;63.75;95347.41;4154871;28;20083;-62
2022/10/13 01:29:50;;;;;;;17.23;10.98;;;;;;;11.78;63.99;95348.22;4162634;28;20076;-62
2022/10/13 01:32:14;;;;;;;15.13;11.13;;;;;;;11.78;63.83;95353.47;4159068;28;20069;-60
2022/10/13 01:34:28;;;;;;;17.00;11.35;;;;;;;11.78;64.01;95345.59;4160485;28;20144;-63
2022/10/13 01:36:34;;;;;;;18.65;11.60;;;;;;;11.79;64.36;95355.13;4162391;28;20061;-62
2022/10/13 01:38:44;;;;;;;15.00;10.90;;;;;;;11.81;64.54;95350.56;4162427;28;20057;-62
2022/10/13 01:41:04;;;;;;;14.65;11.52;;;;;;;11.86;64.36;95352.72;4161454;28;20057;-62
2022/10/13 01:43:24;;;;;;;17.40;11.25;;;;;;;11.84;64.47;95354.66;4161091;28;20081;-62
2022/10/13 01:45:31;;;;;;;15.45;10.73;;;;;;;11.78;64.23;95345.59;4147759;28;20508;-63
2022/10/13 01:47:33;;;;;;;18.63;11.70;;;;;;;11.76;64.23;95347.53;4161136;28;20064;-64
2022/10/13 01:49:35;;;;;;;16.10;11.27;;;;;;;11.74;64.16;95349.47;4160765;28;20116;-64
2022/10/13 01:51:37;;;;;;;18.20;11.63;;;;;;;11.71;64.61;95346.34;4160567;28;20084;-63
2022/10/13 01:53:40;;;;;;;16.02;11.13;;;;;;;11.71;64.89;95349.78;4161172;28;20081;-61
2022/10/13 01:55:56;;;;;;;14.95;10.90;;;;;;;11.72;64.71;95338.31;4161606;28;20558;-55
2022/10/13 01:57:58;;;;;;;18.83;12.30;;;;;;;11.69;65.08;95343.88;4158228;28;20103;-55
2022/10/13 02:00:17;;;;;;;15.52;11.50;;;;;;;11.64;65.15;95338.25;4161855;28;20506;-56
2022/10/13 02:02:27;;;;;;;16.33;11.65;;;;;;;11.61;65.27;95349.03;4162084;28;20131;-56
2022/10/13 02:04:52;;;;;;;16.63;12.18;;;;;;;11.63;65.25;95336.59;4152104;28;20060;-58
2022/10/13 02:06:59;;;;;;;20.23;12.48;;;;;;;11.65;65.01;95334.66;4160708;28;20150;-58
2022/10/13 02:09:05;;;;;;;15.35;11.43;;;;;;;11.60;65.19;95342.97;4161122;28;20469;-58
2022/10/13 02:11:15;;;;;;;16.95;11.10;;;;;;;11.52;65.50;95335.00;4160217;28;20143;-58
2022/10/13 02:13:20;;;;;;;18.38;11.38;;;;;;;11.45;65.55;95333.97;4160483;28;20068;-57
2022/10/13 02:15:27;;;;;;;15.90;10.63;;;;;;;11.43;65.35;95341.16;4159314;28;20615;-58
2022/10/13 02:17:29;;;;;;;17.20;12.35;;;;;;;11.30;66.26;95335.47;4160564;28;20145;-59
2022/10/13 02:19:36;;;;;;;15.95;12.18;;;;;;;11.07;66.04;95336.66;4161816;28;20103;-57
2022/10/13 02:21:38;;;;;;;16.23;12.20;;;;;;;11.00;66.53;95340.84;4161653;28;20658;-57
2022/10/13 02:23:41;;;;;;;15.35;11.00;;;;;;;10.68;67.27;95337.84;4161781;28;20045;-57
2022/10/13 02:25:44;;;;;;;18.08;12.18;;;;;;;10.59;67.89;95337.72;4161271;28;20054;-56
2022/10/13 02:27:45;;;;;;;16.63;10.38;;;;;;;10.55;68.19;95333.72;4161918;28;20136;-55
2022/10/13 02:29:49;;;;;;;17.08;11.52;;;;;;;10.57;67.88;95328.34;4160379;28;20145;-57
2022/10/13 02:31:53;;;;;;;15.68;11.07;;;;;;;10.55;67.89;95325.88;4159950;28;20049;-56
2022/10/13 02:33:55;;;;;;;14.50;10.95;;;;;;;10.52;68.19;95320.94;4164870;28;20135;-62
2022/10/13 02:35:56;;;;;;;15.85;10.73;;;;;;;10.61;68.23;95322.69;4162231;28;20081;-57
2022/10/13 02:37:59;;;;;;;15.65;11.45;;;;;;;10.72;67.57;95324.28;4165014;28;20046;-57
2022/10/13 02:40:00;;;;;;;16.45;10.73;;;;;;;10.80;67.55;95323.59;4165500;28;20052;-59
2022/10/13 02:42:02;;;;;;;17.25;11.70;;;;;;;10.94;67.38;95314.41;4164506;28;20695;-56
2022/10/13 02:44:05;;;;;;;19.80;11.18;;;;;;;11.00;66.99;95319.88;4165221;28;20045;-58
2022/10/13 02:46:06;;;;;;;18.60;12.23;;;;;;;11.04;66.77;95316.00;4159850;28;20498;-56
2022/10/13 02:48:08;;;;;;;20.08;11.77;;;;;;;11.12;66.66;95314.44;4164694;28;20057;-58
2022/10/13 02:50:10;;;;;;;17.50;11.07;;;;;;;11.15;66.40;95312.34;4164596;28;20084;-56
2022/10/13 02:52:11;;;;;;;18.98;12.43;;;;;;;11.19;66.68;95313.69;4164967;28;20128;-57
2022/10/13 02:54:13;;;;;;;19.63;12.13;;;;;;;11.25;66.70;95302.63;4165005;28;20493;-57
2022/10/13 02:56:15;;;;;;;20.77;12.70;;;;;;;11.26;66.82;95304.25;4163231;28;20049;-58
2022/10/13 02:58:16;;;;;;;17.55;12.65;;;;;;;11.30;66.74;95312.66;4164576;28;20124;-56
2022/10/13 03:00:19;;;;;;;15.40;11.88;;;;;;;11.32;66.73;95302.84;4161924;28;20158;-55
2022/10/13 03:02:21;;;;;;;15.85;11.80;;;;;;;11.35;66.65;95305.16;4164531;28;20045;-57
2022/10/13 03:04:23;;;;;;;18.25;12.82;;;;;;;11.32;66.22;95305.47;4164586;28;20128;-57
2022/10/13 03:06:25;;;;;;;17.30;11.98;;;;;;;11.33;66.48;95301.03;4164655;28;20147;-57
2022/10/13 03:08:27;;;;;;;17.40;11.82;;;;;;;11.36;66.35;95306.84;4159259;28;20072;-58
2022/10/13 03:10:30;;;;;;;14.90;11.90;;;;;;;11.39;66.07;95301.28;4164239;28;20051;-57
2022/10/13 03:12:32;;;;;;;17.27;11.60;;;;;;;11.43;66.06;95305.25;4164484;28;20096;-58
2022/10/13 03:14:34;;;;;;;16.88;10.90;;;;;;;11.42;65.79;95298.38;4164424;28;20049;-56
2022/10/13 03:16:36;;;;;;;18.13;11.82;;;;;;;11.42;65.84;95314.09;4162783;28;20130;-58
2022/10/13 03:18:37;;;;;;;15.45;10.98;;;;;;;11.41;65.71;95306.38;4164678;28;20144;-57
2022/10/13 03:20:39;;;;;;;19.25;11.73;;;;;;;11.33;65.80;95309.72;4163949;28;20469;-56
2022/10/13 03:22:41;;;;;;;17.50;11.45;;;;;;;11.25;66.12;95315.75;4164350;28;20092;-54
2022/10/13 03:24:49;;;;;;;17.50;11.65;;;;;;;11.17;66.45;95315.66;4160112;28;20049;-58
2022/10/13 03:26:50;;;;;;;19.35;12.20;;;;;;;10.98;66.75;95316.56;4163957;28;20132;-58
2022/10/13 03:28:52;;;;;;;18.88;11.85;;;;;;;10.91;67.42;95318.16;4160653;28;20148;-58
2022/10/13 03:31:05;;;;;;;19.80;12.07;;;;;;;10.71;67.26;95330.53;4162559;28;20485;-63
2022/10/13 03:33:07;;;;;;;23.10;13.47;;;;;;;10.48;68.62;95322.19;4164205;28;20072;-62
2022/10/13 03:35:09;;;;;;;23.23;13.75;;;;;;;10.40;69.51;95328.13;4163056;28;20149;-62
2022/10/13 03:37:11;;;;;;;20.15;13.02;;;;;;;10.46;69.44;95326.75;4164070;28;20061;-62
2022/10/13 03:39:12;;;;;;;24.65;15.10;;;;;;;10.53;69.72;95324.38;4164195;28;20484;-62
2022/10/13 03:41:16;;;;;;;18.70;12.65;;;;;;;10.28;69.48;95329.22;4163439;28;20068;-63
2022/10/13 03:43:18;;;;;;;;;;;;;;;10.12;70.02;95321.13;4163718;28;20099;-62
2022/10/13 03:45:20;;;;;;;24.80;16.52;;;;;;;10.15;71.19;95328.69;4150333;28;20007;-63
2022/10/13 03:47:21;;;;;;;20.55;14.25;;;;;;;10.26;70.36;95325.94;4162732;28;20049;-62
2022/10/13 03:49:23;;;;;;;25.00;16.95;;;;;;;10.41;70.40;95326.31;4164103;28;20606;-63
2022/10/13 03:51:25;;;;;;;25.15;16.33;;;;;;;10.50;70.26;95322.06;4162697;28;20053;-64
2022/10/13 03:53:26;;;;;;;23.00;16.45;;;;;;;10.59;70.01;95318.56;4163971;28;20128;-60
2022/10/13 03:55:28;;;;;;;26.77;17.83;;;;;;;10.65;70.05;95316.19;4162496;28;20053;-62
2022/10/13 03:57:30;;;;;;;27.95;18.10;;;;;;;10.69;70.36;95318.50;4163736;28;20168;-61
2022/10/13 03:59:32;;;;;;;26.52;18.15;;;;;;;10.75;70.16;95315.31;4163466;28;20136;-63
2022/10/13 04:01:38;;;;;;;29.92;18.52;;;;;;;10.70;70.28;95313.13;4162386;28;20564;-62
2022/10/13 04:03:39;;;;;;;34.95;20.55;;;;;;;10.66;70.72;95306.53;4160970;28;20119;-64
2022/10/13 04:05:42;;;;;;;32.70;19.80;;;;;;;10.64;70.87;95311.91;4160339;28;20128;-64
2022/10/13 04:07:43;;;;;;;26.50;17.85;;;;;;;10.68;70.29;95309.81;4162547;28;20084;-65
2022/10/13 04:09:45;;;;;;;25.20;18.27;;;;;;;10.72;70.38;95315.63;4157207;28;20128;-64
2022/10/13 04:11:50;;;;;;;29.63;19.23;;;;;;;10.76;70.37;95307.31;4156727;28;20060;-64
2022/10/13 04:13:52;;;;;;;30.15;19.55;;;;;;;10.84;70.63;95309.19;4163662;28;20796;-66
2022/10/13 04:15:53;;;;;;;24.33;19.98;;;;;;;10.82;70.43;95309.34;4161827;28;20549;-65
2022/10/13 04:17:55;;;;;;;27.33;20.00;;;;;;;10.84;70.63;95304.78;4163410;28;20130;-62
2022/10/13 04:19:57;;;;;;;36.03;20.35;;;;;;;10.87;70.75;95301.06;4163269;28;20153;-62
2022/10/13 04:21:58;;;;;;;28.20;20.02;;;;;;;10.90;70.98;95306.00;4163596;28;20137;-63
2022/10/13 04:24:01;;;;;;;29.10;19.05;;;;;;;10.94;70.58;95302.09;4163640;28;20059;-63
2022/10/13 04:26:04;;;;;;;35.42;20.40;;;;;;;10.94;70.62;95302.09;4162303;28;20049;-63
2022/10/13 04:28:06;;;;;;;42.40;21.42;;;;;;;10.73;71.04;95301.53;4163644;28;20053;-67
2022/10/13 04:30:08;;;;;;;31.98;20.38;;;;;;;10.61;71.93;95309.59;4160595;28;20050;-64
2022/10/13 04:32:13;;;;;;;32.08;21.45;;;;;;;10.55;71.99;95304.91;4162974;28;20055;-66
2022/10/13 04:34:15;;;;;;;46.28;22.95;;;;;;;10.38;72.33;95303.88;4163520;28;20073;-65
2022/10/13 04:36:17;;;;;;;35.08;21.95;;;;;;;10.31;73.11;95301.97;4157574;28;20107;-64
2022/10/13 04:38:19;;;;;;;39.20;24.65;;;;;;;9.91;74.38;95305.59;4163541;28;20127;-66
2022/10/13 04:40:20;;;;;;;43.95;24.48;;;;;;;9.49;75.79;95304.13;4162574;28;20056;-62
2022/10/13 04:42:22;;;;;;;37.95;23.70;;;;;;;9.33;76.91;95303.81;4162712;28;20129;-62
2022/10/13 04:44:24;;;;;;;38.63;24.45;;;;;;;8.82;79.19;95308.28;4163005;28;20077;-64
2022/10/13 04:46:26;;;;;;;43.75;27.42;;;;;;;8.85;79.26;95302.78;4155572;28;20069;-64
2022/10/13 04:48:28;;;;;;;45.10;27.02;;;;;;;8.66;79.60;95303.56;4163515;28;20092;-65
2022/10/13 04:50:30;;;;;;;45.70;26.38;;;;;;;8.61;80.29;95295.28;4162962;28;20167;-64
2022/10/13 04:52:33;;;;;;;50.88;29.45;;;;;;;8.68;81.02;95309.47;4162808;28;20132;-65
2022/10/13 04:54:35;;;;;;;52.05;29.73;;;;;;;8.88;81.23;95307.72;4162588;28;20516;-62
2022/10/13 04:56:37;;;;;;;49.47;28.60;;;;;;;9.06;79.60;95309.72;4162022;28;20057;-66
2022/10/13 04:58:41;;;;;;;48.38;29.13;;;;;;;9.11;79.26;95315.38;4162673;28;20092;-61
2022/10/13 05:00:45;;;;;;;50.90;28.83;;;;;;;8.96;79.66;95313.13;4161340;28;20545;-62
2022/10/13 05:02:47;;;;;;;55.28;30.85;;;;;;;9.05;79.75;95313.28;4163176;28;20150;-64
2022/10/13 05:04:48;;;;;;;51.50;29.88;;;;;;;9.22;79.06;95316.06;4162762;28;20115;-64
2022/10/13 05:06:50;;;;;;;43.88;27.75;;;;;;;9.45;78.85;95315.00;4162495;28;20121;-62
2022/10/13 05:09:15;;;;;;;48.30;28.00;;;;;;;9.69;77.61;95318.03;4162061;28;20080;-64
2022/10/13 05:11:19;;;;;;;45.38;27.75;;;;;;;9.81;77.01;95316.91;4159312;28;20041;-64
2022/10/13 05:13:20;;;;;;;54.25;27.83;;;;;;;9.74;76.71;95314.97;4162631;28;20064;-62
2022/10/13 05:15:22;;;;;;;45.00;26.38;;;;;;;9.76;76.94;95324.34;4161346;28;20152;-65
2022/10/13 05:17:24;;;;;;;48.70;27.80;;;;;;;9.74;76.67;95328.88;4161877;28;20053;-63
2022/10/13 05:19:26;;;;;;;44.30;27.55;;;;;;;9.75;77.19;95329.72;4162819;28;20080;-65
2022/10/13 05:21:28;;;;;;;41.33;26.92;;;;;;;9.83;76.85;95330.69;4158122;28;20315;-64
2022/10/13 05:23:30;;;;;;;45.88;27.00;;;;;;;9.75;77.06;95330.56;4159631;28;20089;-62
2022/10/13 05:25:34;;;;;;;46.25;28.63;;;;;;;9.72;77.57;95338.69;4160310;28;20153;-62
2022/10/13 05:27:35;;;;;;;;;;;;;;;9.86;77.25;95334.00;4163078;28;20546;-64
2022/10/13 05:29:37;;;;;;;45.40;26.95;;;;;;;10.00;76.35;95344.00;4162627;28;19959;-64
2022/10/13 05:31:39;;;;;;;48.10;28.95;;;;;;;10.16;75.92;95336.44;4161078;28;20063;-64
2022/10/13 05:33:41;;;;;;;39.55;26.20;;;;;;;10.31;75.03;95333.41;4162197;28;20069;-65
2022/10/13 05:35:43;;;;;;;41.03;26.48;;;;;;;10.42;74.74;95343.69;4161111;28;20081;-63
2022/10/13 05:37:45;;;;;;;46.35;27.98;;;;;;;10.55;74.36;95346.00;4162222;28;20056;-62
2022/10/13 05:39:47;;;;;;;38.35;27.05;;;;;;;10.65;74.03;95345.00;4154569;28;20073;-62
2022/10/13 05:41:49;;;;;;;40.70;28.08;;;;;;;10.74;72.89;95352.97;4157431;28;20715;-62
2022/10/13 05:43:56;;;;;;;40.17;27.55;;;;;;;10.83;72.86;95354.72;4161927;28;20431;-63
2022/10/13 05:45:58;;;;;;;36.17;26.48;;;;;;;10.91;72.44;95361.88;4159629;28;20072;-65
2022/10/13 05:48:00;;;;;;;48.47;28.60;;;;;;;10.96;72.30;95363.09;4162700;28;20065;-64
2022/10/13 05:50:02;;;;;;;40.75;27.88;;;;;;;11.03;71.84;95364.19;4161981;28;20497;-65
2022/10/13 05:52:07;;;;;;;44.50;29.08;;;;;;;11.12;71.66;95359.00;4162220;28;20077;-60
2022/10/13 05:54:28;;;;;;;41.45;28.42;;;;;;;11.16;71.19;95361.19;4162027;28;20049;-58
2022/10/13 05:56:34;;;;;;;41.47;28.40;;;;;;;11.20;70.86;95364.34;4161553;28;20065;-57
2022/10/13 05:58:40;;;;;;;37.22;26.58;;;;;;;11.16;71.32;95373.47;4162186;28;20099;-58
2022/10/13 06:00:43;;;;;;;47.85;27.23;;;;;;;11.00;71.24;95377.56;4160694;28;20621;-56
2022/10/13 06:03:09;;;;;;;38.70;27.40;;;;;;;10.78;72.33;95383.19;4161092;28;20054;-58
2022/10/13 06:05:14;;;;;;;41.53;27.08;;;;;;;10.57;73.00;95372.91;4159731;28;20057;-59
2022/10/13 06:07:16;;;;;;;40.90;28.42;;;;;;;10.47;73.51;95366.84;4161147;28;20056;-60
2022/10/13 06:09:18;;;;;;;44.17;26.75;;;;;;;10.51;73.80;95371.66;4161819;28;20045;-59
2022/10/13 06:11:19;;;;;;;43.15;27.83;;;;;;;10.50;74.07;95363.97;4156375;28;20137;-57
2022/10/13 06:13:21;;;;;;;43.15;29.40;;;;;;;10.61;73.74;95369.84;4153114;28;20056;-60
2022/10/13 06:15:23;;;;;;;36.10;26.08;;;;;;;10.58;73.84;95367.53;4160434;28;20110;-60
2022/10/13 06:17:28;;;;;;;38.20;26.65;;;;;;;10.63;73.76;95370.53;4161998;28;20540;-59
2022/10/13 06:19:30;;;;;;;40.40;27.15;;;;;;;10.77;73.69;95373.66;4161685;28;20077;-57
2022/10/13 06:21:34;;;;;;;40.72;26.42;;;;;;;10.95;73.43;95369.31;4160535;28;20057;-57
2022/10/13 06:23:35;;;;;;;39.50;25.52;;;;;;;11.17;72.62;95369.91;4161946;28;20144;-60
2022/10/13 06:25:37;;;;;;;32.70;24.45;;;;;;;11.23;72.04;95371.94;4161759;28;20962;-61
2022/10/13 06:27:39;;;;;;;35.95;24.05;;;;;;;11.38;72.06;95362.59;4161791;28;20049;-61
2022/10/13 06:29:41;;;;;;;35.72;24.80;;;;;;;11.53;71.04;95368.16;4161905;28;20143;-58
2022/10/13 06:31:42;;;;;;;35.13;24.42;;;;;;;11.63;70.58;95362.84;4160277;28;20050;-58
2022/10/13 06:33:44;;;;;;;38.50;23.35;;;;;;;11.61;69.95;95367.41;4162119;28;20129;-60
2022/10/13 06:35:45;;;;;;;39.17;23.17;;;;;;;11.58;70.65;95365.09;4157837;28;20046;-59
2022/10/13 06:37:47;;;;;;;41.08;24.80;;;;;;;11.73;70.66;95358.34;4161844;28;20137;-55
2022/10/13 06:39:49;;;;;;;36.53;24.02;;;;;;;11.92;70.42;95356.59;4161720;28;20104;-56
2022/10/13 06:41:51;;;;;;;39.95;24.63;;;;;;;12.09;69.26;95359.19;4161107;28;20059;-58
2022/10/13 06:43:53;;;;;;;45.35;24.75;;;;;;;12.27;68.96;95353.06;4161927;28;20053;-60
2022/10/13 06:45:59;;;;;;;40.33;24.95;;;;;;;12.37;68.50;95353.81;4160101;28;20141;-58
2022/10/13 06:48:00;;;;;;;38.75;23.17;;;;;;;12.45;68.23;95347.78;4162043;28;20144;-58
2022/10/13 06:50:02;;;;;;;48.53;25.20;;;;;;;12.54;67.96;95349.50;4160979;28;20140;-59
2022/10/13 06:52:04;;;;;;;39.15;24.75;;;;;;;12.59;67.90;95349.84;4161753;28;20483;-56
2022/10/13 06:54:06;;;;;;;37.45;24.52;;;;;;;12.63;67.35;95347.72;4161589;28;20045;-59
2022/10/13 06:56:08;;;;;;;32.42;21.23;;;;;;;12.59;67.28;95347.22;4161313;28;20080;-60
2022/10/13 06:58:10;;;;;;;36.05;22.33;;;;;;;12.22;67.89;95353.53;4161563;28;20049;-62
2022/10/13 07:00:11;;;;;;;42.38;27.58;;;;;;;11.98;69.05;95358.59;4160367;28;20041;-60
2022/10/13 07:02:13;;;;;;;44.78;24.75;;;;;;;12.08;69.23;95351.44;4161589;28;20493;-57
2022/10/13 07:04:15;;;;;;;34.53;23.10;;;;;;;12.27;68.90;95351.25;4161615;28;20080;-59
2022/10/13 07:06:17;;;;;;;44.42;25.42;;;;;;;12.40;68.21;95345.59;4161741;28;20076;-58
2022/10/13 07:08:19;;;;;;;35.97;24.73;;;;;;;12.55;67.91;95345.06;4159698;28;20390;-58
2022/10/13 07:10:21;;;;;;;40.42;25.38;;;;;;;12.48;67.97;95347.47;4161446;28;20582;-59
2022/10/13 07:12:23;;;;;;;39.42;24.40;;;;;;;12.48;68.57;95343.03;4159921;28;20055;-58
2022/10/13 07:14:24;;;;;;;39.30;25.38;;;;;;;12.61;68.24;95341.81;4150580;28;20141;-60
2022/10/13 07:16:26;;;;;;;38.65;24.92;;;;;;;12.82;67.80;95342.25;4159946;28;20187;-64
2022/10/13 07:18:28;;;;;;;40.72;26.48;;;;;;;12.92;66.68;95336.84;4161824;28;20387;-61
2022/10/13 07:20:30;;;;;;;42.67;26.00;;;;;;;12.79;66.65;95339.09;4164222;28;20065;-61
2022/10/13 07:22:31;;;;;;;41.45;25.67;;;;;;;12.72;67.47;95343.34;4164274;28;20073;-62
2022/10/13 07:24:33;;;;;;;47.03;25.13;;;;;;;12.40;68.30;95342.97;4160771;28;20136;-60
2022/10/13 07:26:35;;;;;;;40.45;24.75;;;;;;;12.59;68.83;95341.94;4162499;28;20197;-59
2022/10/13 07:28:37;;;;;;;44.38;26.10;;;;;;;12.31;68.87;95353.59;4159898;28;20419;-60
2022/10/13 07:30:39;;;;;;;43.58;27.70;;;;;;;12.11;69.42;95358.19;4162325;28;20050;-61
2022/10/13 07:32:41;;;;;;;46.40;26.65;;;;;;;12.02;70.01;95349.44;4164342;28;20220;-61
2022/10/13 07:34:43;;;;;;;44.13;26.88;;;;;;;12.09;70.18;95351.31;4164286;28;20041;-61
2022/10/13 07:36:44;;;;;;;61.22;34.10;;;;;;;11.97;70.04;95349.88;4164381;28;20156;-62
2022/10/13 07:38:46;;;;;;;47.45;28.25;;;;;;;12.09;69.72;95348.69;4164049;28;20437;-58
2022/10/13 07:40:48;;;;;;;49.78;28.35;;;;;;;12.10;69.83;95349.50;4163772;28;20048;-61
2022/10/13 07:42:49;;;;;;;42.95;26.95;;;;;;;12.25;69.81;95345.34;4164216;28;20088;-62
2022/10/13 07:44:51;;;;;;;44.25;25.60;;;;;;;12.23;69.22;95349.91;4164100;28;20080;-62
2022/10/13 07:46:53;;;;;;;38.83;26.48;;;;;;;12.49;69.00;95346.47;4162391;28;20056;-63
2022/10/13 07:48:54;;;;;;;34.03;24.45;;;;;;;12.82;68.05;95344.03;4163902;28;20053;-56
2022/10/13 07:50:57;;;;;;;38.08;23.90;;;;;;;13.12;67.19;95342.72;4163886;28;20103;-58
2022/10/13 07:52:58;;;;;;;36.35;24.70;;;;;;;13.25;65.74;95344.84;4162768;28;20064;-59
2022/10/13 07:55:00;;;;;;;40.13;28.48;;;;;;;12.96;66.02;95348.72;4163538;28;20060;-59
2022/10/13 07:57:02;;;;;;;48.00;30.15;;;;;;;12.94;66.14;95342.78;4163624;28;20129;-58
2022/10/13 07:59:04;;;;;;;50.50;31.67;;;;;;;12.80;66.93;95348.63;4163994;28;20049;-60
2022/10/13 08:01:06;;;;;;;44.78;28.67;;;;;;;12.85;67.07;95338.47;4162098;28;20093;-56
2022/10/13 08:03:08;;;;;;;44.85;29.92;;;;;;;13.10;66.66;95340.22;4162414;28;20073;-62
2022/10/13 08:05:10;;;;;;;44.72;29.17;;;;;;;13.19;65.69;95342.91;4155459;28;20460;-66
2022/10/13 08:07:11;;;;;;;46.65;28.80;;;;;;;12.87;67.01;95339.13;4163673;28;20053;-62
2022/10/13 08:09:13;;;;;;;44.85;29.27;;;;;;;13.13;66.60;95339.06;4163771;28;20494;-65
2022/10/13 08:11:16;;;;;;;49.63;29.38;;;;;;;13.13;66.23;95340.91;4163002;28;20046;-64
2022/10/13 08:13:18;;;;;;;46.78;28.35;;;;;;;13.02;66.63;95339.38;4157544;28;20053;-66
2022/10/13 08:15:19;;;;;;;46.90;27.52;;;;;;;12.90;67.78;95338.81;4158151;28;20445;-63
2022/10/13 08:17:21;;;;;;;41.70;28.15;;;;;;;12.99;66.96;95335.25;4162519;28;20119;-65
2022/10/13 08:19:25;;;;;;;68.97;41.92;;;;;;;13.27;66.22;95329.75;4163667;28;20104;-65
2022/10/13 08:21:28;;;;;;;52.15;31.05;;;;;;;13.51;65.48;95327.22;4163736;28;20107;-66
2022/10/13 08:23:50;;;;;;;42.63;27.73;;;;;;;13.82;64.47;95325.78;4162930;28;20053;-64
2022/10/13 08:25:51;;;;;;;40.75;27.25;;;;;;;14.04;63.87;95333.00;4163340;28;20077;-64
2022/10/13 08:27:53;;;;;;;42.80;27.40;;;;;;;14.31;63.17;95331.03;4163609;28;20064;-65
2022/10/13 08:30:01;;;;;;;38.63;26.10;;;;;;;14.58;62.63;95334.31;4163422;28;20060;-65
2022/10/13 08:32:02;;;;;;;39.55;25.60;;;;;;;14.62;61.12;95325.06;4161956;28;20118;-64
2022/10/13 08:34:04;;;;;;;38.08;25.15;;;;;;;14.49;61.95;95325.56;4161969;28;20056;-66
2022/10/13 08:36:07;;;;;;;35.67;26.17;;;;;;;14.38;62.47;95323.28;4160158;28;20049;-65
2022/10/13 08:38:08;;;;;;;38.30;24.67;;;;;;;14.42;62.55;95327.22;4163033;28;20045;-67
2022/10/13 08:40:16;;;;;;;41.50;25.50;;;;;;;14.57;62.21;95322.94;4163207;28;20103;-66
2022/10/13 08:42:20;;;;;;;35.72;25.13;;;;;;;14.68;62.03;95322.59;4165356;28;20054;-65
2022/10/13 08:44:26;;;;;;;41.47;24.90;;;;;;;14.84;61.01;95320.88;4156574;28;20062;-64
2022/10/13 08:46:55;;;;;;;38.47;24.77;;;;;;;14.50;61.50;95320.13;4161158;28;20049;-71
2022/10/13 08:48:59;;;;;;;37.35;24.60;;;;;;;14.53;61.91;95316.34;4163500;28;20133;-65
2022/10/13 08:51:02;;;;;;;38.53;25.95;;;;;;;14.71;61.79;95306.44;4161187;28;20081;-66
2022/10/13 08:53:06;;;;;;;;;;;;;;;14.96;60.91;95308.97;4162336;28;20069;-64
2022/10/13 08:55:17;;;;;;;42.00;25.50;;;;;;;15.19;60.18;95295.03;4161129;28;20012;-66
2022/10/13 08:57:19;;;;;;;36.38;23.50;;;;;;;15.36;59.67;95299.22;4161871;28;20049;-66
2022/10/13 08:59:21;;;;;;;34.88;24.33;;;;;;;15.60;59.45;95295.63;4162098;28;20064;-64
2022/10/13 09:01:27;;;;;;;46.97;24.88;;;;;;;15.75;58.47;95296.53;4161046;28;20053;-67
2022/10/13 09:03:29;;;;;;;42.28;25.67;;;;;;;15.88;57.85;95292.47;4163070;28;20054;-66
2022/10/13 09:05:38;;;;;;;41.65;24.55;;;;;;;16.00;57.42;95292.88;4162848;28;20045;-66
2022/10/13 09:07:40;;;;;;;36.75;22.10;;;;;;;16.10;57.60;95296.09;4162987;28;20049;-66
2022/10/13 09:09:42;;;;;;;39.58;23.70;;;;;;;16.02;57.33;95290.88;4162863;28;20502;-65
2022/10/13 09:11:46;;;;;;;36.70;22.40;;;;;;;15.99;58.29;95285.94;4161230;28;20053;-68
2022/10/13 09:13:47;;;;;;;;;;;;;;;15.99;58.07;95293.88;4159158;28;20137;-65
2022/10/13 09:15:49;;;;;;;39.97;23.33;;;;;;;16.05;58.19;95286.06;4159698;28;19963;-65
2022/10/13 09:18:08;;;;;;;39.78;22.33;;;;;;;16.17;58.43;95294.38;4162784;28;20077;-65
2022/10/13 09:20:22;;;;;;;36.88;22.35;;;;;;;16.27;58.04;95280.91;4158857;28;20169;-67
2022/10/13 09:22:34;;;;;;;38.20;21.95;;;;;;;16.35;57.69;95280.84;4159796;28;20061;-68
2022/10/13 09:24:36;;;;;;;38.53;22.13;;;;;;;16.45;57.80;95275.25;4154341;28;20092;-65
2022/10/13 09:26:38;;;;;;;35.92;23.27;;;;;;;16.51;57.50;95266.59;4161897;28;20176;-66
2022/10/13 09:28:41;;;;;;;39.65;23.60;;;;;;;16.55;56.95;95265.25;4162517;28;20437;-66
2022/10/13 09:30:47;;;;;;;38.58;21.55;;;;;;;16.60;56.50;95257.56;4160516;28;20052;-67
2022/10/13 09:32:49;;;;;;;35.88;22.15;;;;;;;16.72;55.94;95253.47;4160556;28;20140;-68